Flight Track Log - Related Links

Times and Time Zones

All times are in EDT time to prevent confusion due to time zone crossing. See the ULA900 flight status page for this flight to view local times or setup timezone preferences in your user account.

Time Position Orientation Groundspeed Altitude Reporting Facility
EDT Latitude Longitude Course Direction KTS MPH feet Rate Location/Type
Tue 03:09:04 PM 41.3125 -95.9036 353° North 148 170 1,400  Level Minneapolis Center
Tue 03:09:59 PM 41.3506 -95.9103 353° North 172 198 4,000 2,712 Climbing Minneapolis Center
Tue 03:10:48 PM 41.3506 -95.8525 90° East 186 214 6,100 2,600 Climbing Minneapolis Center
Tue 03:10:59 PM 41.3478 -95.8356 102° East 223 257 6,600 2,262 Climbing Minneapolis Center
Tue 03:11:49 PM 41.3372 -95.7658 101° East 213 245 8,400 2,361 Climbing Minneapolis Center
Tue 03:12:00 PM 41.3353 -95.7428 96° East 271 312 9,000 2,323 Climbing Minneapolis Center
Tue 03:12:51 PM 41.3269 -95.6628 98° East 253 291 10,800 2,089 Climbing Minneapolis Center
Tue 03:13:52 PM 41.3275 -95.5469 90° East 290 334 12,900 2,016 Climbing Minneapolis Center
Tue 03:14:53 PM 41.3403 -95.4119 83° East 333 383 14,900 1,805 Climbing Minneapolis Center
Tue 03:15:55 PM 41.3514 -95.2819 83° East 370 426 16,600 2,049 Climbing Minneapolis Center
Tue 03:16:56 PM 41.3664 -95.1053 83° East 393 452 19,100 2,000 Climbing Minneapolis Center
Tue 03:17:58 PM 41.3800 -94.9531 83° East 408 470 20,700 1,512 Climbing Minneapolis Center
Tue 03:18:59 PM 41.3922 -94.7931 84° East 426 490 22,200 1,475 Climbing Minneapolis Center
Tue 03:20:00 PM 41.4053 -94.6286 84° East 441 507 23,700 1,463 Climbing Minneapolis Center
Tue 03:21:02 PM 41.4175 -94.4611 84° East 451 519 25,200 1,415 Climbing Minneapolis Center
Tue 03:22:03 PM 41.4322 -94.2917 83° East 456 525 26,600 1,220 Climbing Minneapolis Center
Tue 03:23:05 PM 41.4464 -94.1156 84° East 466 536 27,700 976 Climbing Minneapolis Center
Tue 03:24:06 PM 41.4578 -93.9389 85° East 476 548 28,600 787 Climbing Minneapolis Center
Tue 03:25:07 PM 41.4708 -93.7544 85° East 493 567 29,300 829 Climbing Minneapolis Center
Tue 03:26:09 PM 41.4844 -93.5664 84° East 501 577 30,300 1,073 Climbing Minneapolis Center
Tue 03:27:10 PM 41.5011 -93.3342 84° East 515 593 31,500 1,024 Climbing Minneapolis Center
Tue 03:28:12 PM 41.5150 -93.1422 84° East 518 596 32,400 927 Climbing Minneapolis Center
Tue 03:29:13 PM 41.5275 -92.9500 85° East 520 598 33,400 984 Climbing Minneapolis Center
Tue 03:30:14 PM 41.5400 -92.7572 85° East 520 598 34,400 927 Climbing Minneapolis Center
Tue 03:31:16 PM 41.5519 -92.5675 85° East 520 598 35,300 716 Climbing Minneapolis Center
Tue 03:32:03 PM 41.5619 -92.3992 85° East 519 597 35,700 440 Climbing Chicago Center
Tue 03:33:05 PM 41.5725 -92.2050 86° East 528 608 36,100 387 Climbing Chicago Center
Tue 03:34:07 PM 41.5850 -92.0106 85° East 531 611 36,500 390 Climbing Chicago Center
Tue 03:35:08 PM 41.5958 -91.8125 86° East 537 618 36,900 244 Climbing Chicago Center
Tue 03:36:10 PM 41.6072 -91.6150 86° East 540 621 37,000 48 Climbing Chicago Center
Tue 03:37:12 PM 41.6197 -91.3769 86° East 542 624 37,000 194 Level Chicago Center
Tue 03:38:14 PM 41.6292 -91.1772 86° East 544 626 37,400 484 Climbing Chicago Center
Tue 03:39:16 PM 41.6400 -90.9806 86° East 538 619 38,000 532 Climbing Chicago Center
Tue 03:40:18 PM 41.6481 -90.7872 87° East 530 610 38,500 339 Climbing Chicago Center
Tue 03:41:20 PM 41.6583 -90.5603 86° East 528 608 38,700 145 Climbing Chicago Center
Tue 03:42:22 PM 41.6678 -90.3586 86° East 534 615 38,800 97 Climbing Chicago Center
Tue 03:43:24 PM 41.6764 -90.1578 87° East 536 617 38,900 97 Climbing Chicago Center
Tue 03:44:26 PM 41.6836 -89.9611 87° East 533 613 39,000 48 Climbing Chicago Center
Tue 03:45:28 PM 41.6919 -89.7603 87° East 536 617 39,000  Level Chicago Center
Tue 03:46:30 PM 41.6989 -89.5558 87° East 542 624 39,000  Level Chicago Center
Tue 03:47:31 PM 41.7058 -89.3483 87° East 551 634 39,000  Level Chicago Center
Tue 03:48:33 PM 41.7122 -89.1394 88° East 555 639 39,000  Level Chicago Center
Tue 03:49:35 PM 41.7200 -88.8922 88° East 554 638 39,000  Level Chicago Center
Tue 03:50:37 PM 41.7275 -88.6858 87° East 554 638 39,000  Level Chicago Center
Tue 03:51:39 PM 41.7322 -88.4786 88° East 554 638 39,000  Level Chicago Center
Tue 03:52:41 PM 41.7375 -88.2714 88° East 556 640 39,000  Level Chicago Center
Tue 03:53:43 PM 41.7425 -88.0433 88° East 556 640 39,000  Level Chicago Center
Tue 03:54:45 PM 41.7489 -87.8372 88° East 557 641 39,000  Level Chicago Center
Tue 03:55:46 PM 41.7528 -87.6247 89° East 556 640 39,000  Level Chicago Center
Tue 03:56:48 PM 41.7561 -87.4178 89° East 557 641 39,000  Level Chicago Center
Tue 03:57:50 PM 41.7600 -87.2097 88° East 560 644 39,000  Level Chicago Center
Tue 03:58:52 PM 41.7633 -87.0019 89° East 559 643 39,000  Level Chicago Center
Tue 03:59:54 PM 41.7669 -86.7947 89° East 558 642 39,000  Level Chicago Center
Tue 04:00:56 PM 41.7664 -86.5472 90° East 557 641 39,000  Level Chicago Center
Tue 04:01:58 PM 41.7717 -86.3408 88° East 554 638 39,000  Level Chicago Center
Tue 04:03:00 PM 41.7886 -86.1350 84° East 553 636 39,000  Level Chicago Center
Tue 04:04:01 PM 41.8103 -85.9278 82° East 559 643 39,000  Level Chicago Center
Tue 04:05:03 PM 41.8311 -85.7183 82° East 562 647 39,000  Level Chicago Center
Tue 04:06:05 PM 41.8519 -85.5044 82° East 569 655 39,000  Level Chicago Center
Tue 04:07:07 PM 41.8725 -85.2908 83° East 568 654 39,000  Level Chicago Center
Tue 04:08:09 PM 41.8939 -85.0792 82° East 566 651 39,000  Level Chicago Center
Tue 04:09:11 PM 41.9156 -84.8697 82° East 566 651 39,000  Level Chicago Center
Tue 04:10:13 PM 41.9403 -84.6181 82° East 565 650 39,000  Level Chicago Center
Tue 04:11:15 PM 41.9558 -84.4081 84° East 566 651 39,000  Level Chicago Center
Tue 04:12:17 PM 41.9483 -84.1947 93° East 569 655 39,000  Level Chicago Center
Tue 04:13:19 PM 41.9389 -83.9847 93° East 566 651 39,000  Level Chicago Center
Tue 04:14:21 PM 41.9283 -83.7733 94° East 567 652 39,000  Level Chicago Center
Tue 04:15:51 PM 41.9122 -83.4344 94° East 567 652 39,000  Level Cleveland Center
Tue 04:16:53 PM 41.9011 -83.2225 94° East 567 652 39,000  Level Cleveland Center
Tue 04:17:55 PM 41.8917 -83.0156 93° East 567 652 39,000  Level Cleveland Center
Tue 04:18:57 PM 41.8800 -82.8056 94° East 567 652 39,000  Level Cleveland Center
Tue 04:19:59 PM 41.8683 -82.5972 94° East 567 652 39,000  Level Cleveland Center
Tue 04:21:02 PM 41.8542 -82.3464 94° East 567 652 39,000  Level Cleveland Center
Tue 04:22:04 PM 41.8408 -82.1242 95° East 566 651 39,000  Level Cleveland Center
Tue 04:23:06 PM 41.8283 -81.9103 94° East 566 651 39,000  Level Cleveland Center
Tue 04:24:08 PM 41.8147 -81.6994 95° East 565 650 39,000  Level Cleveland Center
Tue 04:25:10 PM 41.8006 -81.4889 95° East 562 647 39,000  Level Cleveland Center
Tue 04:26:12 PM 41.7864 -81.2794 95° East 559 643 39,000  Level Cleveland Center
Tue 04:27:14 PM 41.7719 -81.0719 95° East 557 641 39,000  Level Cleveland Center
Tue 04:28:16 PM 41.7578 -80.8656 95° East 550 633 39,000  Level Cleveland Center
Tue 04:29:18 PM 41.7453 -80.6603 95° East 551 634 39,000  Level Cleveland Center
Tue 04:30:21 PM 41.7278 -80.4536 96° East 551 634 39,000  Level Cleveland Center
Tue 04:31:23 PM 41.7094 -80.2128 96° East 553 636 39,000  Level Cleveland Center
Tue 04:32:25 PM 41.6933 -80.0081 96° East 551 634 39,000  Level Cleveland Center
Tue 04:33:27 PM 41.6761 -79.8031 96° East 551 634 39,000  Level Cleveland Center
Tue 04:34:29 PM 41.6611 -79.6131 96° East 551 634 39,000  Level Cleveland Center
Tue 04:35:31 PM 41.6411 -79.3708 96° East 550 633 39,000  Level Cleveland Center
Tue 04:36:33 PM 41.6233 -79.1703 97° East 549 632 39,000  Level Cleveland Center
Tue 04:37:35 PM 41.6064 -78.9672 96° East 548 631 39,000 -387 Level Cleveland Center
Tue 04:38:37 PM 41.5881 -78.7639 97° East 549 632 38,200 -1,152 Descending Cleveland Center
Tue 04:39:40 PM 41.5694 -78.5633 97° East 549 632 36,600 -1,632 Descending Cleveland Center
Tue 04:40:42 PM 41.5508 -78.3681 97° East 534 615 34,800 -2,032 Descending Cleveland Center
Tue 04:41:44 PM 41.5283 -78.1300 97° East 534 615 32,400 -1,839 Descending Cleveland Center
Tue 04:42:46 PM 41.5069 -77.9272 98° East 547 629 31,000 -677 Descending Cleveland Center
Tue 04:43:48 PM 41.4775 -77.7269 101° East 550 633 31,000 -48 Level Cleveland Center
Tue 04:44:50 PM 41.4497 -77.5286 101° East 549 632 30,900 -677 Descending Cleveland Center
Tue 04:45:52 PM 41.4211 -77.3336 101° East 543 625 29,600 -1,403 Descending Cleveland Center
Tue 04:46:54 PM 41.3925 -77.1358 101° East 544 626 28,000 -1,742 Descending Cleveland Center
Tue 04:47:56 PM 41.3569 -76.9008 101° East 544 626 26,000 -1,728 Descending Cleveland Center
Tue 04:48:59 PM 41.3206 -76.7050 104° East 544 626 24,400 -1,536 Descending Cleveland Center
Tue 04:50:01 PM 41.2689 -76.5136 110° East 550 633 22,800 -1,548 Descending Cleveland Center
Tue 04:51:03 PM 41.2178 -76.3264 110° East 548 631 21,200 -1,619 Descending Cleveland Center
Tue 04:52:07 PM 41.1558 -76.1033 110° East 539 620 19,400 -1,355 Descending New York Center
Tue 04:53:07 PM 41.1111 -75.9400 110° East 529 609 18,400 -1,800 Descending New York Center
Tue 04:54:07 PM 41.0589 -75.7489 110° East 506 582 15,800 -2,650 Descending New York Center
Tue 04:55:07 PM 41.0117 -75.5778 110° East 494 568 13,100 -1,400 Descending New York Center
Tue 04:56:07 PM 40.9681 -75.4208 110° East 469 540 13,000 -550 Descending New York Center
Tue 04:57:07 PM 40.9294 -75.2836 110° East 450 518 12,000 -1,650 Descending New York Center
Tue 04:58:07 PM 40.8892 -75.1408 110° East 425 489 9,700 -1,750 Descending New York Center
Tue 04:59:07 PM 40.8522 -75.0094 110° East 368 423 8,500 -1,400 Descending New York Center
Tue 05:00:07 PM 40.8189 -74.8922 111° Southeast 340 391 6,900 -1,250 Descending New York Center
Tue 05:01:07 PM 40.7672 -74.8181 133° Southeast 313 360 6,000 -450 Descending New York Center
Tue 05:02:07 PM 40.7033 -74.7347 135° Southeast 292 336 6,000  Level New York Center
Tue 05:03:07 PM 40.6597 -74.6667 130° Southeast 281 323 6,000 -273 Level New York Center
Tue 05:03:57 PM 40.6167 -74.6000 130° Southeast 257 296 5,500 -655 Descending New York TRACON
Tue 05:04:57 PM 40.6000 -74.5167 105° East 231 266 4,800 -1,000 Descending New York TRACON
Tue 05:05:57 PM 40.6333 -74.4667 49° Northeast 202 232 3,500 -1,400 Descending New York TRACON
Tue 05:06:57 PM 40.6500 -74.4000 72° East 215 247 2,000 -750 Descending New York TRACON
Tue 05:07:57 PM 40.6167 -74.3833 159° South 177 204 2,000 333 Level New York TRACON
Tue 05:09:03 PM 40.5500 -74.4000 191° South 193 222 2,700 429 Climbing New York TRACON
Tue 05:10:03 PM 40.5000 -74.4000 180° South 192 221 2,900 150 Climbing New York TRACON
Tue 05:11:03 PM 40.4500 -74.4333 207° Southwest 183 211 3,000 50 Climbing New York TRACON
Tue 05:12:03 PM 40.4167 -74.4833 229° Southwest 188 216 3,000 -50 Level New York TRACON
Tue 05:13:03 PM 40.4167 -74.5333 270° West 195 224 2,900 -500 Descending New York TRACON
Tue 05:14:03 PM 40.4667 -74.5000 27° Northeast 194 223 2,000 -450 Descending New York TRACON
Tue 05:15:03 PM 40.5167 -74.4667 27° Northeast 184 212 2,000  Level New York TRACON
Tue 05:16:03 PM 40.5667 -74.4333 27° Northeast 184 212 2,000 50 Level New York TRACON
Tue 05:17:03 PM 40.6000 -74.4000 37° Northeast 192 221 2,100 -100 Climbing New York TRACON
Tue 05:18:03 PM 40.6500 -74.3667 27° Northeast 197 227 1,800 -200 Descending New York TRACON
Tue 05:19:03 PM 40.6833 -74.3167 49° Northeast 193 222 1,700 -350 Descending New York TRACON
Tue 05:20:03 PM 40.7000 -74.2500 72° East 172 198 1,100 -650 Descending New York TRACON
Tue 05:21:03 PM 40.7000 -74.2000 90° East 142 163 400 -700 Descending New York TRACON
Tue 05:23:00 PM 40.6833 -74.1667 39° Northeast  Level FlightAware Approximate
Tue 05:30:00 PM 40.6925 -74.1687 39° Northeast  Level Estimated
Tue 05:31:00 PM 40.6925 -74.1687 39° Northeast  Level Estimated

Login

Don't have an account? Register now (free) for customized features, flight alerts, and more!